| Record Date MM/DD/YYYY | Record Time HH:MM:SS | Record Julian Date NNN day of the year | Air Temperature Max (Degrees Fahrenheit F) | Time Max Air Temperature HH:MM:SS This is the time of max air temp for the prior hour interval listed for record [Time]. | Air Temperature Min (Degrees Fahrenheit F) | Time Min Air Temperature HH:MM:SS This is the time of min air temp for the prior hour interval listed for record [Time]. | Air Temperature Observed (Degrees Fahrenheit F) This is an instantaneous reading at the record [Time]. | Relative Humidity Max (Percent) | Time Max Relative Humidity HH:MM:SS This is the time of max relative humidity for the prior hour interval listed for record [Time]. | Relative Humidity Min (Percent) | Time Min Relative Humidity HH:MM:SS This is the time of min relative humidity for the prior hour interval listed for record [Time]. | Relative Humidity Observed (Percent) This is an instantaneous reading at the record [Time]. | Precipitation (Inches n.nn) rain fall that occurred during the prior hour interval listed for record [Time]. | Wind Speed (Miles Per Hour) Resultant Speed that occurred during the prior hour interval listed for record [Time]. | Wind Direction (Degrees) Resultant Direction that occurred during the prior hour interval listed for record [Time]. | Solar Radiation (Langley's) that occurred during the prior hour interval listed for record [Time]. | Soil Temperature Average at 2 inch depth (Degrees Fahrenheit F) that occurred during the prior hour interval listed for record [Time]. | Soil Temperature Observed at 2 inch depth (Degrees Fahrenheit F) This is an instantaneous reading at the record [Time]. | Soil Temperature Average at 4 inch depth (Degrees Fahrenheit F) that occurred during the prior hour interval listed for record [Time]. | Soil Temperature Observed at 4 inch depth (Degrees Fahrenheit F) This is an instantaneous reading at the record [Time]. |
|---|---|---|---|---|---|---|---|---|---|---|---|---|---|---|---|---|---|---|---|---|
| 04/26/2026 | 0:00:00 | 116 | 70 | 23:36:05 | 69 | 23:59:04 | 69 | 94 | 23:15:03 | 89 | 23:36:00 | 91.7 | 0 | 2.3 | 55 | 0 | 73 | 73 | 73 | 73 |
| 04/26/2026 | 1:00:00 | 116 | 69 | 0:00:04 | 68 | 0:52:03 | 68 | 96 | 0:55:04 | 92 | 0:14:00 | 95.6 | 0 | 0.5 | 22 | 0 | 73 | 73 | 73 | 73 |
| 04/26/2026 | 2:00:00 | 116 | 69 | 1:34:03 | 68 | 1:01:01 | 68 | 96 | 1:00:00 | 92 | 1:59:05 | 92 | 0 | 1.5 | 356 | 0 | 72 | 72 | 73 | 72 |
| 04/26/2026 | 3:00:00 | 116 | 68 | 2:01:02 | 68 | 2:33:01 | 68 | 94 | 2:57:05 | 92 | 2:00:00 | 93.9 | 0 | 0.5 | 289 | 0 | 72 | 72 | 72 | 72 |
| 04/26/2026 | 4:00:00 | 116 | 68 | 3:00:00 | 67 | 3:45:03 | 68 | 96 | 3:52:00 | 94 | 3:01:03 | 95 | 0.01 | 2.0 | 241 | 0 | 72 | 72 | 72 | 72 |
| 04/26/2026 | 5:00:00 | 116 | 68 | 4:12:00 | 67 | 4:54:04 | 67 | 97 | 4:56:00 | 94 | 4:13:05 | 96.9 | 0 | 2.2 | 199 | 0 | 71 | 71 | 72 | 71 |
| 04/26/2026 | 6:00:00 | 116 | 67 | 5:07:00 | 66 | 5:50:03 | 67 | 97 | 5:01:00 | 96 | 6:00:00 | 96.2 | 0 | 2.6 | 144 | 1 | 71 | 71 | 71 | 71 |
| 04/26/2026 | 7:00:00 | 116 | 71 | 7:00:00 | 67 | 6:00:00 | 71 | 96 | 6:00:00 | 89 | 6:54:04 | 89.6 | 0 | 4.1 | 129 | 9 | 71 | 71 | 71 | 71 |
| 04/26/2026 | 8:00:00 | 116 | 73 | 7:58:05 | 70 | 7:01:01 | 73 | 91 | 7:19:00 | 86 | 7:59:01 | 87.4 | 0 | 4.4 | 148 | 15 | 71 | 71 | 71 | 71 |
| 04/26/2026 | 9:00:00 | 116 | 75 | 8:58:02 | 73 | 8:01:02 | 75 | 89 | 8:05:03 | 80 | 8:58:04 | 81.6 | 0 | 3.0 | 126 | 30 | 71 | 71 | 71 | 71 |
| 04/26/2026 | 10:00:00 | 116 | 79 | 9:59:04 | 74 | 9:11:01 | 79 | 85 | 9:25:03 | 68 | 9:56:00 | 68.8 | 0 | 3.6 | 128 | 45 | 72 | 72 | 71 | 72 |
| 04/26/2026 | 11:00:00 | 116 | 81 | 10:43:05 | 79 | 10:00:01 | 79 | 73 | 10:34:05 | 62 | 10:13:01 | 67.13 | 0 | 4.2 | 192 | 63 | 73 | 74 | 72 | 73 |
| 04/26/2026 | 12:00:00 | 116 | 83 | 11:54:01 | 79 | 11:01:05 | 82 | 72 | 11:04:05 | 58 | 11:59:02 | 60.07 | 0 | 3.0 | 189 | 62 | 75 | 76 | 74 | 75 |
| 04/26/2026 | 13:00:00 | 116 | 83 | 12:26:01 | 80 | 12:05:03 | 81 | 64 | 12:17:04 | 49 | 12:40:02 | 54.88 | 0 | 3.9 | 155 | 59 | 77 | 77 | 76 | 77 |
| 04/26/2026 | 14:00:00 | 116 | 83 | 13:55:03 | 81 | 13:02:01 | 83 | 62 | 13:38:00 | 51 | 13:20:05 | 53.93 | 0 | 4.7 | 147 | 53 | 78 | 78 | 77 | 78 |
| 04/26/2026 | 15:00:00 | 116 | 85 | 14:47:03 | 82 | 14:02:01 | 83 | 61 | 14:55:03 | 51 | 14:32:04 | 58.45 | 0 | 5.1 | 158 | 58 | 78 | 79 | 78 | 78 |
| 04/26/2026 | 16:00:00 | 116 | 85 | 15:36:04 | 83 | 15:00:00 | 84 | 63 | 15:58:05 | 53 | 15:34:02 | 60.46 | 0 | 5.5 | 179 | 40 | 79 | 79 | 79 | 79 |
| 04/26/2026 | 17:00:00 | 116 | 84 | 16:45:01 | 83 | 16:10:04 | 84 | 67 | 16:15:03 | 59 | 16:05:05 | 61.38 | 0 | 5.2 | 197 | 20 | 79 | 79 | 79 | 79 |
| 04/26/2026 | 18:00:00 | 116 | 84 | 17:03:00 | 81 | 17:59:02 | 81 | 69 | 17:50:04 | 60 | 17:03:04 | 68.7 | 0 | 4.7 | 175 | 12 | 78 | 78 | 79 | 78 |
| 04/26/2026 | 19:00:00 | 116 | 81 | 18:00:00 | 77 | 18:59:03 | 77 | 84 | 19:00:00 | 68 | 18:02:01 | 84.4 | 0 | 2.7 | 184 | 1 | 78 | 78 | 78 | 78 |
| 04/26/2026 | 20:00:00 | 116 | 77 | 19:59:01 | 76 | 19:28:05 | 77 | 88 | 19:40:00 | 82 | 19:59:04 | 81.8 | 0 | 2.5 | 187 | 0 | 77 | 77 | 77 | 77 |
| 04/26/2026 | 21:00:00 | 116 | 77 | 20:01:03 | 76 | 20:57:04 | 76 | 85 | 20:27:03 | 81 | 20:01:02 | 83.3 | 0 | 2.8 | 166 | 0 | 77 | 76 | 77 | 77 |
| 04/26/2026 | 22:00:00 | 116 | 76 | 21:10:01 | 76 | 21:31:01 | 76 | 83 | 21:30:03 | 82 | 21:10:03 | 82.4 | 0 | 3.8 | 164 | 0 | 76 | 76 | 76 | 76 |
| 04/26/2026 | 23:00:00 | 116 | 76 | 22:01:03 | 75 | 22:49:05 | 75 | 85 | 22:42:04 | 82 | 22:01:02 | 84.2 | 0 | 3.5 | 160 | 0 | 76 | 75 | 76 | 75 |
| 04/27/2026 | 0:00:00 | 117 | 75 | 23:03:04 | 74 | 23:47:02 | 74 | 86 | 23:59:04 | 84 | 23:03:05 | 86.2 | 0 | 3.1 | 158 | 0 | 75 | 75 | 75 | 75 |
| 04/27/2026 | 1:00:00 | 117 | 75 | 0:52:05 | 74 | 0:23:05 | 75 | 87 | 0:23:05 | 85 | 0:06:03 | 85.4 | 0 | 3.9 | 159 | 0 | 75 | 75 | 75 | 75 |
| 04/27/2026 | 2:00:00 | 117 | 75 | 1:11:05 | 73 | 1:59:05 | 73 | 90 | 2:00:00 | 85 | 1:00:00 | 89.9 | 0 | 5.0 | 171 | 0 | 75 | 74 | 74 | 74 |
| 04/27/2026 | 3:00:00 | 117 | 73 | 2:00:01 | 73 | 2:39:00 | 73 | 92 | 2:55:04 | 90 | 2:04:05 | 92.2 | 0 | 4.6 | 181 | 0 | 74 | 74 | 74 | 74 |
| 04/27/2026 | 4:00:00 | 117 | 73 | 3:56:02 | 73 | 3:27:01 | 73 | 94 | 3:46:05 | 92 | 3:05:05 | 93.5 | 0 | 5.9 | 187 | 0 | 74 | 74 | 74 | 74 |
| 04/27/2026 | 5:00:00 | 117 | 73 | 4:15:03 | 73 | 4:51:03 | 73 | 95 | 4:52:00 | 93 | 4:16:02 | 94.5 | 0 | 8.3 | 187 | 0 | 74 | 74 | 73 | 73 |
| 04/27/2026 | 6:00:00 | 117 | 73 | 6:00:00 | 72 | 5:16:04 | 73 | 95 | 5:18:04 | 94 | 5:59:05 | 93.6 | 0 | 8.6 | 195 | 1 | 73 | 73 | 73 | 73 |
| 04/27/2026 | 7:00:00 | 117 | 73 | 6:19:00 | 73 | 6:52:05 | 73 | 94 | 6:54:05 | 93 | 6:13:01 | 93.2 | 0 | 7.6 | 206 | 5 | 73 | 73 | 73 | 73 |
| 04/27/2026 | 8:00:00 | 117 | 75 | 7:52:00 | 73 | 7:01:04 | 75 | 93 | 7:05:01 | 90 | 7:55:03 | 90.6 | 0 | 7.8 | 201 | 12 | 73 | 73 | 73 | 73 |
| 04/27/2026 | 9:00:00 | 117 | 78 | 8:53:02 | 74 | 8:07:02 | 77 | 92 | 8:09:01 | 85 | 8:53:04 | 85.4 | 0 | 8.8 | 200 | 27 | 73 | 74 | 73 | 73 |
| 04/27/2026 | 10:00:00 | 117 | 78 | 9:56:04 | 76 | 9:19:00 | 78 | 88 | 9:08:02 | 81 | 9:58:05 | 82.7 | 0 | 9.7 | 198 | 28 | 74 | 74 | 73 | 74 |
| 04/27/2026 | 11:00:00 | 117 | 80 | 10:48:00 | 77 | 10:00:05 | 79 | 84 | 10:14:00 | 78 | 10:51:01 | 80.9 | 0 | 9.8 | 199 | 36 | 74 | 75 | 74 | 74 |
| 04/27/2026 | 12:00:00 | 117 | 81 | 11:54:02 | 78 | 11:35:05 | 81 | 84 | 11:46:03 | 79 | 11:57:03 | 80.2 | 0 | 9.4 | 194 | 24 | 75 | 75 | 75 | 75 |
| 04/27/2026 | 13:00:00 | 117 | 82 | 12:45:01 | 80 | 12:05:03 | 82 | 83 | 12:09:02 | 76 | 12:42:01 | 78.31 | 0 | 11.2 | 186 | 42 | 75 | 76 | 75 | 75 |
| 04/27/2026 | 14:00:00 | 117 | 84 | 13:34:03 | 81 | 13:04:04 | 82 | 80 | 13:08:02 | 72 | 13:37:01 | 75.5 | 0 | 11.5 | 192 | 30 | 76 | 76 | 75 | 76 |
| 04/27/2026 | 15:00:00 | 117 | 82 | 14:59:05 | 81 | 14:23:02 | 82 | 78 | 14:40:03 | 73 | 14:06:04 | 75.3 | 0 | 10.3 | 199 | 13 | 76 | 76 | 76 | 76 |
| 04/27/2026 | 16:00:00 | 117 | 84 | 15:44:00 | 82 | 15:03:05 | 84 | 76 | 15:03:00 | 71 | 15:42:00 | 73.22 | 0 | 10.6 | 201 | 19 | 76 | 76 | 76 | 76 |
| 04/27/2026 | 17:00:00 | 117 | 84 | 16:02:00 | 83 | 16:58:04 | 83 | 76 | 16:15:02 | 72 | 16:02:02 | 75.16 | 0 | 10.0 | 198 | 11 | 76 | 76 | 76 | 76 |
| 04/27/2026 | 18:00:00 | 117 | 83 | 17:00:00 | 82 | 17:55:03 | 82 | 80 | 17:55:00 | 75 | 17:03:00 | 80.4 | 0 | 8.2 | 193 | 5 | 76 | 76 | 76 | 76 |
| 04/27/2026 | 19:00:00 | 117 | 82 | 18:00:01 | 80 | 18:35:01 | 81 | 84 | 18:08:03 | 78 | 18:56:04 | 78.67 | 0 | 8.2 | 196 | 2 | 76 | 76 | 76 | 76 |
| 04/27/2026 | 20:00:00 | 117 | 82 | 19:11:04 | 80 | 19:59:02 | 80 | 80 | 19:59:01 | 76 | 19:35:00 | 79.84 | 0 | 8.4 | 200 | 0 | 76 | 76 | 76 | 75 |
| 04/27/2026 | 21:00:00 | 117 | 80 | 20:00:00 | 79 | 20:58:03 | 79 | 84 | 20:33:05 | 80 | 20:00:00 | 82.9 | 0 | 6.7 | 189 | 0 | 75 | 75 | 75 | 75 |
| 04/27/2026 | 22:00:00 | 117 | 80 | 21:27:04 | 79 | 21:11:00 | 79 | 83 | 21:02:01 | 79 | 21:48:03 | 79.62 | 0 | 9.0 | 198 | 0 | 75 | 75 | 75 | 75 |
| 04/27/2026 | 23:00:00 | 117 | 79 | 22:00:00 | 78 | 22:58:03 | 78 | 81 | 22:19:03 | 80 | 22:00:01 | 80.3 | 0 | 8.0 | 207 | 0 | 75 | 75 | 75 | 75 |
| 04/28/2026 | 0:00:00 | 118 | 78 | 23:00:04 | 77 | 23:55:03 | 77 | 81 | 23:04:02 | 75 | 23:47:04 | 75.16 | 0 | 8.3 | 203 | 0 | 75 | 75 | 75 | 74 |
| 04/28/2026 | 1:00:00 | 118 | 77 | 0:05:03 | 76 | 0:44:00 | 76 | 78 | 0:43:04 | 75 | 0:05:00 | 77.67 | 0 | 7.8 | 204 | 0 | 74 | 74 | 74 | 74 |
| 04/28/2026 | 2:00:00 | 118 | 76 | 1:00:01 | 74 | 1:59:05 | 74 | 83 | 1:59:05 | 77 | 1:11:04 | 82.5 | 0 | 6.0 | 205 | 0 | 74 | 74 | 74 | 74 |
| 04/28/2026 | 3:00:00 | 118 | 74 | 2:08:02 | 73 | 2:50:01 | 73 | 85 | 2:50:02 | 83 | 2:00:00 | 84.4 | 0 | 5.2 | 206 | 0 | 74 | 74 | 74 | 73 |
| 04/28/2026 | 4:00:00 | 118 | 74 | 3:34:05 | 73 | 3:00:00 | 74 | 86 | 3:59:04 | 84 | 3:18:00 | 85.5 | 0 | 7.1 | 205 | 0 | 73 | 73 | 73 | 73 |
| 04/28/2026 | 5:00:00 | 118 | 74 | 4:18:03 | 73 | 4:58:05 | 73 | 88 | 4:59:05 | 86 | 4:00:02 | 88.3 | 0 | 5.0 | 205 | 0 | 73 | 73 | 73 | 73 |
| 04/28/2026 | 6:00:00 | 118 | 73 | 5:01:05 | 73 | 5:41:03 | 73 | 90 | 5:30:02 | 88 | 5:00:03 | 89 | 0 | 5.8 | 196 | 0 | 73 | 73 | 73 | 73 |
| 04/28/2026 | 7:00:00 | 118 | 73 | 6:38:04 | 73 | 6:59:04 | 73 | 91 | 6:58:01 | 89 | 6:04:00 | 90.5 | 0 | 4.5 | 198 | 2 | 73 | 73 | 73 | 73 |
| 04/28/2026 | 8:00:00 | 118 | 73 | 7:09:05 | 72 | 7:53:01 | 72 | 97 | 7:59:00 | 90 | 7:03:03 | 96.5 | 0.04 | 4.0 | 184 | 2 | 73 | 73 | 73 | 73 |
| 04/28/2026 | 9:00:00 | 118 | 74 | 8:59:05 | 72 | 8:03:00 | 74 | 97 | 8:06:04 | 95 | 8:59:05 | 95.1 | 0 | 4.0 | 174 | 7 | 73 | 73 | 73 | 73 |
| 04/28/2026 | 10:00:00 | 118 | 76 | 9:56:04 | 74 | 9:02:01 | 76 | 95 | 9:00:01 | 91 | 9:58:04 | 91.4 | 0 | 5.7 | 196 | 16 | 73 | 73 | 73 | 73 |
| 04/28/2026 | 11:00:00 | 118 | 77 | 10:34:02 | 76 | 10:01:00 | 77 | 93 | 10:03:04 | 90 | 10:37:03 | 91 | 0 | 7.3 | 184 | 24 | 73 | 74 | 73 | 73 |
| 04/28/2026 | 12:00:00 | 118 | 78 | 11:58:04 | 76 | 11:17:03 | 78 | 92 | 11:19:04 | 87 | 11:59:01 | 87.8 | 0 | 6.8 | 192 | 15 | 74 | 74 | 74 | 74 |
| 04/28/2026 | 13:00:00 | 118 | 79 | 12:39:02 | 78 | 12:19:02 | 79 | 89 | 12:20:03 | 84 | 12:44:03 | 84.6 | 0 | 6.0 | 185 | 22 | 74 | 74 | 74 | 74 |
| 04/28/2026 | 14:00:00 | 118 | 80 | 13:15:05 | 77 | 13:59:05 | 77 | 89 | 13:58:04 | 84 | 13:11:00 | 89.3 | 0 | 4.8 | 206 | 7 | 75 | 75 | 74 | 75 |
| 04/28/2026 | 15:00:00 | 118 | 78 | 14:52:00 | 77 | 14:11:05 | 78 | 90 | 14:18:01 | 88 | 14:50:01 | 89.1 | 0 | 4.9 | 210 | 9 | 75 | 75 | 75 | 75 |
| 04/28/2026 | 16:00:00 | 118 | 80 | 15:32:03 | 77 | 16:00:00 | 77 | 90 | 15:24:00 | 84 | 15:56:05 | 86.1 | 0 | 6.0 | 176 | 21 | 75 | 75 | 75 | 75 |
| 04/28/2026 | 17:00:00 | 118 | 77 | 16:00:00 | 74 | 16:42:03 | 74 | 89 | 16:56:05 | 83 | 16:12:04 | 89.1 | 0 | 9.3 | 173 | 12 | 75 | 75 | 75 | 75 |
| 04/28/2026 | 18:00:00 | 118 | 74 | 17:00:05 | 73 | 17:59:05 | 74 | 92 | 17:58:04 | 89 | 17:21:02 | 91.8 | 0 | 8.6 | 182 | 5 | 75 | 75 | 75 | 75 |
| 04/28/2026 | 19:00:00 | 118 | 74 | 18:00:01 | 73 | 18:45:04 | 73 | 93 | 18:46:02 | 91 | 18:24:03 | 92.4 | 0 | 7.2 | 185 | 1 | 75 | 74 | 74 | 74 |
| 04/28/2026 | 20:00:00 | 118 | 73 | 19:35:04 | 72 | 19:59:02 | 72 | 95 | 19:58:05 | 90 | 19:37:04 | 95 | 0.11 | 3.9 | 195 | 0 | 74 | 74 | 74 | 74 |
| 04/28/2026 | 21:00:00 | 118 | 72 | 20:05:04 | 71 | 20:49:04 | 71 | 98 | 20:50:02 | 95 | 20:01:02 | 98.2 | 0.21 | 5.3 | 211 | 0 | 74 | 74 | 74 | 74 |
| 04/28/2026 | 22:00:00 | 118 | 72 | 21:56:00 | 71 | 21:00:01 | 72 | 98 | 21:03:00 | 90 | 21:59:04 | 90.4 | 0 | 8.2 | 207 | 0 | 73 | 73 | 73 | 73 |
| 04/28/2026 | 23:00:00 | 118 | 73 | 22:39:01 | 71 | 22:17:04 | 72 | 91 | 22:00:00 | 78 | 22:38:04 | 81.4 | 0 | 4.6 | 235 | 0 | 73 | 73 | 73 | 73 |
| 04/29/2026 | 0:00:00 | 119 | 73 | 23:54:05 | 71 | 23:38:00 | 73 | 87 | 23:48:04 | 81 | 23:05:03 | 85 | 0 | 3.6 | 302 | 0 | 73 | 73 | 73 | 73 |
| 04/29/2026 | 1:00:00 | 119 | 73 | 0:00:00 | 71 | 0:56:01 | 71 | 92 | 0:37:04 | 85 | 0:00:03 | 91.4 | 0 | 1.8 | 226 | 0 | 72 | 72 | 73 | 72 |
| 04/29/2026 | 2:00:00 | 119 | 72 | 1:09:04 | 71 | 1:58:04 | 71 | 95 | 1:59:04 | 90 | 1:10:03 | 95 | 0 | 0.7 | 224 | 0 | 72 | 72 | 72 | 72 |
| 04/29/2026 | 3:00:00 | 119 | 71 | 2:32:04 | 70 | 2:03:01 | 71 | 95 | 2:01:00 | 92 | 2:32:00 | 94.6 | 0 | 1.3 | 222 | 0 | 72 | 72 | 72 | 72 |
| 04/29/2026 | 4:00:00 | 119 | 71 | 3:00:02 | 70 | 3:52:01 | 70 | 97 | 3:59:03 | 95 | 3:01:03 | 97.2 | 0 | 0.5 | 156 | 0 | 72 | 72 | 72 | 72 |
| 04/29/2026 | 5:00:00 | 119 | 70 | 4:46:04 | 70 | 4:59:03 | 70 | 100 | 4:44:03 | 97 | 4:00:00 | 97.6 | 0 | 1.0 | 323 | 0 | 72 | 72 | 72 | 72 |
| 04/29/2026 | 6:00:00 | 119 | 70 | 5:59:03 | 70 | 5:25:05 | 70 | 98 | 5:40:01 | 97 | 6:00:00 | 97.2 | 0 | 1.1 | 345 | 1 | 72 | 72 | 72 | 72 |
| 04/29/2026 | 7:00:00 | 119 | 71 | 6:29:00 | 70 | 7:00:00 | 70 | 97 | 6:00:03 | 93 | 6:41:02 | 93.2 | 0 | 3.3 | 355 | 5 | 72 | 72 | 72 | 72 |
| 04/29/2026 | 8:00:00 | 119 | 70 | 7:00:01 | 69 | 7:33:02 | 69 | 93 | 7:00:02 | 91 | 7:59:01 | 91.3 | 0 | 6.2 | 3 | 10 | 72 | 72 | 72 | 72 |
| 04/29/2026 | 9:00:00 | 119 | 70 | 8:21:01 | 69 | 8:01:05 | 70 | 92 | 8:17:04 | 87 | 8:59:05 | 87 | 0 | 7.7 | 11 | 25 | 72 | 72 | 72 | 72 |
| 04/29/2026 | 10:00:00 | 119 | 71 | 9:50:00 | 69 | 9:18:00 | 70 | 88 | 9:00:05 | 83 | 9:48:00 | 85.2 | 0 | 9.1 | 11 | 32 | 72 | 72 | 72 | 72 |
| 04/29/2026 | 11:00:00 | 119 | 71 | 10:57:03 | 70 | 10:22:02 | 70 | 86 | 10:00:01 | 80 | 10:50:02 | 80.5 | 0 | 8.8 | 19 | 38 | 72 | 72 | 73 | 73 |
| 04/29/2026 | 12:00:00 | 119 | 71 | 11:38:02 | 70 | 11:00:05 | 71 | 85 | 11:42:00 | 77 | 11:51:01 | 80.1 | 0 | 8.5 | 25 | 41 | 72 | 73 | 73 | 73 |
| 04/29/2026 | 13:00:00 | 119 | 72 | 12:19:03 | 70 | 12:59:05 | 70 | 86 | 12:57:04 | 77 | 12:03:00 | 84.1 | 0 | 8.4 | 21 | 30 | 73 | 73 | 73 | 74 |
| 04/29/2026 | 14:00:00 | 119 | 70 | 13:38:04 | 69 | 13:30:00 | 70 | 87 | 13:16:00 | 83 | 13:56:03 | 83.9 | 0 | 7.9 | 18 | 28 | 73 | 73 | 74 | 74 |
| 04/29/2026 | 15:00:00 | 119 | 70 | 14:02:01 | 68 | 14:59:03 | 68 | 86 | 14:42:02 | 82 | 14:05:03 | 85.7 | 0 | 6.2 | 23 | 11 | 73 | 73 | 74 | 74 |
| 04/29/2026 | 16:00:00 | 119 | 69 | 15:47:02 | 67 | 15:58:05 | 67 | 88 | 15:59:05 | 84 | 15:53:00 | 87.6 | 0 | 8.8 | 23 | 20 | 73 | 73 | 74 | 74 |
| 04/29/2026 | 17:00:00 | 119 | 67 | 16:00:01 | 66 | 16:49:02 | 66 | 88 | 16:43:02 | 86 | 16:08:01 | 86.5 | 0 | 9.7 | 23 | 11 | 72 | 72 | 73 | 73 |
| 04/29/2026 | 18:00:00 | 119 | 66 | 17:04:00 | 66 | 17:59:04 | 66 | 88 | 17:26:01 | 85 | 17:58:01 | 85.5 | 0 | 7.7 | 24 | 4 | 72 | 72 | 73 | 73 |
| 04/29/2026 | 19:00:00 | 119 | 66 | 18:01:00 | 65 | 19:00:00 | 65 | 88 | 18:49:01 | 84 | 18:16:02 | 86 | 0 | 7.0 | 21 | 1 | 72 | 71 | 73 | 72 |
| 04/29/2026 | 20:00:00 | 119 | 65 | 19:06:04 | 64 | 19:38:01 | 65 | 86 | 19:01:05 | 84 | 19:57:04 | 83.8 | 0 | 6.4 | 21 | 0 | 71 | 71 | 72 | 72 |
| 04/29/2026 | 21:00:00 | 119 | 65 | 20:03:00 | 64 | 20:48:03 | 64 | 86 | 20:38:03 | 83 | 20:16:00 | 83.7 | 0 | 5.8 | 30 | 0 | 71 | 70 | 72 | 71 |
| 04/29/2026 | 22:00:00 | 119 | 64 | 21:19:00 | 64 | 21:52:02 | 64 | 86 | 21:51:04 | 82 | 21:18:01 | 85.2 | 0 | 6.0 | 32 | 0 | 70 | 70 | 71 | 71 |
| 04/29/2026 | 23:00:00 | 119 | 64 | 22:47:04 | 64 | 22:20:04 | 64 | 86 | 22:07:01 | 83 | 22:47:02 | 85 | 0 | 6.1 | 44 | 0 | 70 | 70 | 71 | 70 |
| 04/30/2026 | 0:00:00 | 120 | 64 | 23:00:00 | 61 | 23:35:05 | 62 | 96 | 23:41:00 | 85 | 23:00:00 | 94 | 0.17 | 3.9 | 19 | 0 | 69 | 69 | 70 | 70 |
| 04/30/2026 | 1:00:00 | 120 | 62 | 0:50:03 | 62 | 0:05:05 | 62 | 95 | 0:14:02 | 89 | 0:58:02 | 89 | 0 | 4.0 | 28 | 0 | 69 | 69 | 70 | 69 |
| 04/30/2026 | 2:00:00 | 120 | 62 | 1:00:05 | 62 | 1:36:04 | 62 | 90 | 1:02:02 | 87 | 1:57:05 | 87.6 | 0 | 4.7 | 29 | 0 | 69 | 69 | 69 | 69 |
| 04/30/2026 | 3:00:00 | 120 | 62 | 2:00:01 | 61 | 3:00:00 | 61 | 88 | 2:11:00 | 82 | 2:47:01 | 83.3 | 0 | 5.1 | 30 | 0 | 69 | 68 | 69 | 69 |
| 04/30/2026 | 4:00:00 | 120 | 61 | 3:00:01 | 59 | 3:56:05 | 59 | 84 | 3:04:02 | 81 | 3:29:00 | 83.4 | 0 | 5.7 | 33 | 0 | 68 | 68 | 69 | 68 |
| 04/30/2026 | 5:00:00 | 120 | 59 | 4:02:02 | 58 | 4:54:04 | 58 | 84 | 4:54:04 | 82 | 4:58:04 | 82.4 | 0 | 5.7 | 33 | 0 | 68 | 67 | 68 | 68 |
| 04/30/2026 | 6:00:00 | 120 | 58 | 5:03:02 | 57 | 5:52:02 | 58 | 83 | 6:00:00 | 81 | 5:58:01 | 82.9 | 0 | 6.4 | 38 | 1 | 67 | 67 | 68 | 67 |
| 04/30/2026 | 7:00:00 | 120 | 59 | 6:50:01 | 58 | 6:22:03 | 59 | 83 | 6:00:00 | 77 | 6:53:02 | 78.34 | 0 | 7.3 | 44 | 9 | 66 | 66 | 67 | 67 |
| 04/30/2026 | 8:00:00 | 120 | 60 | 7:07:04 | 59 | 7:00:01 | 60 | 81 | 7:01:03 | 73 | 7:57:03 | 76.04 | 0 | 10.3 | 58 | 18 | 66 | 66 | 67 | 67 |
| 04/30/2026 | 9:00:00 | 120 | 62 | 8:58:04 | 59 | 8:02:05 | 62 | 78 | 8:21:01 | 67 | 8:59:02 | 72.4 | 0 | 11.5 | 61 | 44 | 66 | 66 | 67 | 67 |
| 04/30/2026 | 10:00:00 | 120 | 64 | 9:53:05 | 62 | 9:04:03 | 63 | 76 | 9:07:04 | 66 | 9:54:02 | 68.81 | 0 | 10.8 | 64 | 58 | 66 | 67 | 67 | 67 |
| 04/30/2026 | 11:00:00 | 120 | 65 | 10:56:05 | 64 | 10:00:00 | 65 | 76 | 10:45:03 | 63 | 10:52:01 | 65.27 | 0 | 8.6 | 60 | 57 | 67 | 68 | 68 | 68 |
| 04/30/2026 | 12:00:00 | 120 | 67 | 11:40:04 | 65 | 11:18:04 | 65 | 73 | 11:23:03 | 59 | 11:51:01 | 61.95 | 0 | 8.0 | 45 | 60 | 68 | 69 | 69 | 70 |
| 04/30/2026 | 13:00:00 | 120 | 67 | 12:44:04 | 65 | 12:00:00 | 66 | 72 | 12:14:04 | 54 | 12:48:03 | 59.17 | 0 | 8.4 | 43 | 52 | 69 | 69 | 70 | 71 |
| 04/30/2026 | 14:00:00 | 120 | 66 | 13:42:05 | 65 | 13:22:01 | 66 | 68 | 13:24:05 | 58 | 13:45:00 | 62.7 | 0 | 7.1 | 42 | 26 | 69 | 69 | 71 | 71 |
| 04/30/2026 | 15:00:00 | 120 | 66 | 14:40:04 | 66 | 14:06:01 | 66 | 66 | 14:01:04 | 56 | 14:43:04 | 59.88 | 0 | 6.7 | 37 | 21 | 69 | 69 | 71 | 71 |
| 04/30/2026 | 16:00:00 | 120 | 66 | 15:00:01 | 65 | 15:35:04 | 66 | 68 | 15:48:04 | 57 | 15:09:03 | 62.19 | 0 | 5.3 | 40 | 13 | 69 | 69 | 71 | 70 |
| 04/30/2026 | 17:00:00 | 120 | 66 | 16:23:03 | 65 | 16:58:05 | 65 | 69 | 16:05:03 | 61 | 16:33:00 | 67 | 0 | 4.4 | 34 | 10 | 69 | 69 | 70 | 70 |
| 04/30/2026 | 18:00:00 | 120 | 65 | 17:00:01 | 64 | 17:59:02 | 64 | 71 | 17:58:03 | 64 | 17:24:04 | 70.42 | 0 | 3.7 | 44 | 5 | 69 | 69 | 70 | 70 |
| 04/30/2026 | 19:00:00 | 120 | 64 | 18:00:00 | 62 | 18:54:00 | 63 | 74 | 18:52:02 | 66 | 18:32:01 | 68.74 | 0 | 2.8 | 39 | 1 | 69 | 68 | 70 | 69 |
| 04/30/2026 | 20:00:00 | 120 | 63 | 19:02:00 | 62 | 19:59:00 | 62 | 73 | 19:48:02 | 67 | 19:16:00 | 71.47 | 0 | 3.4 | 33 | 0 | 68 | 68 | 69 | 69 |
| 04/30/2026 | 21:00:00 | 120 | 62 | 20:01:05 | 60 | 20:55:02 | 60 | 75 | 20:34:01 | 69 | 20:15:00 | 72.21 | 0 | 3.4 | 37 | 0 | 68 | 68 | 69 | 68 |
| 04/30/2026 | 22:00:00 | 120 | 60 | 21:00:04 | 60 | 21:59:04 | 60 | 75 | 21:07:03 | 70 | 21:37:04 | 73.15 | 0 | 4.0 | 37 | 0 | 67 | 67 | 68 | 68 |
| 04/30/2026 | 23:00:00 | 120 | 60 | 22:00:00 | 58 | 22:51:04 | 58 | 76 | 22:50:00 | 73 | 22:00:05 | 75.16 | 0 | 3.0 | 29 | 0 | 67 | 67 | 68 | 67 |
| 05/01/2026 | 0:00:00 | 121 | 59 | 23:01:05 | 58 | 23:52:02 | 58 | 77 | 23:39:02 | 73 | 0:00:00 | 73.38 | 0 | 3.4 | 30 | 0 | 66 | 66 | 67 | 67 |
| 05/01/2026 | 1:00:00 | 121 | 58 | 0:00:00 | 57 | 0:53:04 | 58 | 78 | 0:53:01 | 73 | 0:23:02 | 75.87 | 0 | 3.4 | 32 | 0 | 66 | 66 | 67 | 66 |
| 05/01/2026 | 2:00:00 | 121 | 58 | 1:00:02 | 57 | 1:59:05 | 57 | 78 | 1:59:03 | 75 | 1:54:05 | 77.5 | 0 | 3.2 | 26 | 0 | 66 | 66 | 66 | 66 |
| 05/01/2026 | 3:00:00 | 121 | 57 | 2:07:03 | 56 | 2:51:00 | 56 | 84 | 2:50:00 | 76 | 2:08:03 | 82.8 | 0 | 2.1 | 42 | 0 | 65 | 65 | 66 | 66 |
| 05/01/2026 | 4:00:00 | 121 | 56 | 3:35:04 | 56 | 3:06:00 | 56 | 85 | 3:15:04 | 79 | 3:50:02 | 79.26 | 0 | 3.0 | 23 | 0 | 65 | 65 | 66 | 66 |
| 05/01/2026 | 5:00:00 | 121 | 56 | 4:01:04 | 56 | 4:47:01 | 56 | 83 | 4:38:05 | 78 | 4:00:02 | 81.2 | 0 | 3.2 | 18 | 0 | 65 | 65 | 65 | 65 |
| 05/01/2026 | 6:00:00 | 121 | 56 | 5:59:05 | 56 | 5:28:03 | 56 | 84 | 5:44:03 | 80 | 5:58:02 | 80.4 | 0 | 3.1 | 28 | 0 | 65 | 64 | 65 | 65 |
| 05/01/2026 | 7:00:00 | 121 | 57 | 6:59:04 | 56 | 6:19:04 | 57 | 82 | 6:17:01 | 77 | 6:59:02 | 77.24 | 0 | 4.1 | 24 | 5 | 64 | 64 | 65 | 65 |
| 05/01/2026 | 8:00:00 | 121 | 58 | 7:54:04 | 57 | 7:00:00 | 58 | 79 | 7:20:03 | 73 | 7:53:02 | 74.89 | 0 | 4.3 | 33 | 9 | 64 | 64 | 65 | 65 |
| 05/01/2026 | 9:00:00 | 121 | 59 | 8:54:05 | 58 | 8:00:03 | 59 | 77 | 8:52:00 | 72 | 8:58:03 | 72.97 | 0 | 4.4 | 33 | 13 | 64 | 64 | 65 | 65 |
| 05/01/2026 | 10:00:00 | 121 | 61 | 9:54:02 | 59 | 9:02:03 | 60 | 77 | 9:52:01 | 71 | 9:05:01 | 74.2 | 0 | 5.2 | 48 | 17 | 64 | 64 | 65 | 65 |
| 05/01/2026 | 11:00:00 | 121 | 62 | 10:58:05 | 60 | 10:00:00 | 62 | 76 | 10:00:03 | 68 | 10:24:00 | 69.52 | 0 | 5.1 | 47 | 22 | 64 | 65 | 65 | 65 |
| 05/01/2026 | 12:00:00 | 121 | 62 | 11:42:05 | 61 | 11:08:01 | 62 | 73 | 11:00:04 | 63 | 11:28:01 | 66.15 | 0 | 4.3 | 47 | 17 | 65 | 65 | 65 | 65 |
| 05/01/2026 | 13:00:00 | 121 | 63 | 12:49:02 | 62 | 12:00:00 | 63 | 71 | 12:44:03 | 63 | 12:54:00 | 63.94 | 0 | 4.6 | 51 | 19 | 65 | 65 | 65 | 66 |
| 05/01/2026 | 14:00:00 | 121 | 64 | 13:59:03 | 63 | 13:00:00 | 64 | 70 | 13:10:05 | 60 | 13:49:04 | 62.55 | 0 | 6.4 | 46 | 26 | 65 | 65 | 66 | 66 |
| 05/01/2026 | 15:00:00 | 121 | 65 | 14:58:05 | 64 | 14:29:01 | 65 | 68 | 14:01:04 | 54 | 14:35:00 | 54.46 | 0 | 7.4 | 40 | 26 | 66 | 66 | 66 | 66 |
| 05/01/2026 | 16:00:00 | 121 | 67 | 15:49:05 | 64 | 15:16:02 | 66 | 59 | 15:47:03 | 51 | 15:16:01 | 53.98 | 0 | 7.2 | 33 | 31 | 66 | 66 | 66 | 66 |
| 05/01/2026 | 17:00:00 | 121 | 67 | 16:02:01 | 64 | 16:59:04 | 64 | 62 | 16:53:00 | 50 | 16:25:04 | 58.47 | 0 | 6.4 | 39 | 21 | 66 | 66 | 67 | 67 |
| 05/01/2026 | 18:00:00 | 121 | 64 | 17:00:00 | 62 | 17:58:02 | 62 | 62 | 17:59:05 | 56 | 17:16:03 | 61.45 | 0 | 5.5 | 26 | 5 | 66 | 66 | 67 | 67 |
| 05/01/2026 | 19:00:00 | 121 | 62 | 18:00:00 | 60 | 18:59:02 | 60 | 64 | 18:32:00 | 59 | 18:42:05 | 62.9 | 0 | 4.4 | 13 | 2 | 65 | 65 | 66 | 66 |
| 05/01/2026 | 20:00:00 | 121 | 60 | 19:00:00 | 59 | 19:59:05 | 59 | 66 | 19:46:03 | 61 | 19:09:04 | 65.7 | 0 | 4.3 | 13 | 0 | 65 | 65 | 66 | 66 |
| 05/01/2026 | 21:00:00 | 121 | 59 | 20:07:02 | 58 | 20:37:05 | 58 | 68 | 20:37:02 | 63 | 20:15:00 | 64.48 | 0 | 4.3 | 14 | 0 | 65 | 64 | 65 | 65 |
| 05/01/2026 | 22:00:00 | 121 | 59 | 21:35:03 | 58 | 21:03:03 | 59 | 66 | 21:03:00 | 60 | 21:45:04 | 60.65 | 0 | 4.9 | 19 | 0 | 64 | 64 | 65 | 65 |
| 05/01/2026 | 23:00:00 | 121 | 59 | 22:03:00 | 58 | 22:56:01 | 58 | 62 | 22:08:05 | 59 | 22:34:04 | 59.79 | 0 | 4.7 | 27 | 0 | 64 | 64 | 65 | 64 |
| 05/02/2026 | 0:00:00 | 122 | 58 | 23:39:05 | 58 | 23:58:05 | 58 | 64 | 23:57:05 | 57 | 23:39:02 | 60.86 | 0 | 3.5 | 35 | 0 | 63 | 63 | 64 | 64 |
| 05/02/2026 | 1:00:00 | 122 | 58 | 0:09:03 | 57 | 0:57:02 | 57 | 65 | 0:02:03 | 59 | 0:34:04 | 64.12 | 0 | 3.4 | 30 | 0 | 63 | 63 | 64 | 64 |
| 05/02/2026 | 2:00:00 | 122 | 57 | 1:00:01 | 54 | 1:57:01 | 55 | 72 | 1:44:03 | 64 | 1:00:00 | 70.71 | 0 | 2.2 | 12 | 0 | 63 | 63 | 63 | 63 |
| 05/02/2026 | 3:00:00 | 122 | 55 | 2:00:05 | 52 | 2:59:05 | 52 | 76 | 3:00:00 | 71 | 2:29:04 | 75.83 | 0 | 2.5 | 13 | 0 | 63 | 62 | 63 | 63 |
| 05/02/2026 | 4:00:00 | 122 | 52 | 3:17:02 | 51 | 3:56:01 | 52 | 77 | 3:03:05 | 74 | 3:41:04 | 74.68 | 0 | 2.4 | 10 | 0 | 62 | 62 | 63 | 62 |
| 05/02/2026 | 5:00:00 | 122 | 52 | 4:00:00 | 50 | 4:59:05 | 50 | 81 | 4:59:04 | 74 | 4:03:02 | 80.9 | 0 | 2.2 | 9 | 0 | 62 | 62 | 62 | 62 |
| 05/02/2026 | 6:00:00 | 122 | 52 | 5:59:02 | 49 | 5:04:05 | 52 | 81 | 5:02:00 | 75 | 5:59:05 | 75.48 | 0 | 1.5 | 349 | 2 | 61 | 61 | 62 | 62 |
| 05/02/2026 | 7:00:00 | 122 | 56 | 6:59:04 | 52 | 6:00:04 | 56 | 76 | 6:02:04 | 67 | 6:57:01 | 67.63 | 0 | 2.8 | 3 | 9 | 61 | 61 | 61 | 61 |
| 05/02/2026 | 8:00:00 | 122 | 60 | 7:59:05 | 56 | 7:08:01 | 60 | 70 | 7:11:01 | 57 | 7:54:02 | 62.21 | 0 | 3.6 | 12 | 20 | 61 | 61 | 61 | 61 |
| 05/02/2026 | 9:00:00 | 122 | 64 | 8:59:01 | 60 | 8:03:03 | 64 | 63 | 8:00:02 | 47 | 8:55:02 | 51.35 | 0 | 2.9 | 32 | 48 | 61 | 62 | 61 | 62 |
| 05/02/2026 | 10:00:00 | 122 | 67 | 9:38:05 | 63 | 9:06:04 | 66 | 56 | 9:10:01 | 41 | 9:55:05 | 45.34 | 0 | 3.3 | 18 | 61 | 62 | 63 | 62 | 63 |
| 05/02/2026 | 11:00:00 | 122 | 68 | 10:55:05 | 66 | 10:00:02 | 68 | 49 | 10:05:02 | 36 | 10:59:01 | 36.96 | 0 | 3.7 | 356 | 71 | 64 | 65 | 64 | 65 |
| 05/02/2026 | 12:00:00 | 122 | 70 | 11:51:03 | 68 | 11:00:02 | 70 | 47 | 11:29:05 | 35 | 11:05:04 | 37.92 | 0 | 4.4 | 344 | 73 | 66 | 67 | 67 | 68 |
| 05/02/2026 | 13:00:00 | 122 | 71 | 12:58:04 | 69 | 12:35:02 | 71 | 45 | 12:39:01 | 32 | 12:50:04 | 35.54 | 0 | 4.5 | 329 | 65 | 68 | 68 | 69 | 69 |
| 05/02/2026 | 14:00:00 | 122 | 72 | 13:51:05 | 69 | 13:18:00 | 71 | 41 | 13:00:03 | 30 | 13:06:05 | 31.78 | 0 | 5.1 | 347 | 54 | 69 | 69 | 70 | 71 |
| 05/02/2026 | 15:00:00 | 122 | 73 | 14:23:05 | 71 | 14:00:04 | 72 | 40 | 14:14:05 | 31 | 14:48:05 | 33.65 | 0 | 4.9 | 310 | 65 | 70 | 70 | 71 | 71 |
| 05/02/2026 | 16:00:00 | 122 | 73 | 15:28:05 | 70 | 15:37:04 | 73 | 41 | 15:41:00 | 33 | 15:20:05 | 35.32 | 0 | 4.8 | 322 | 47 | 70 | 70 | 72 | 72 |
| 05/02/2026 | 17:00:00 | 122 | 73 | 16:20:02 | 71 | 16:14:00 | 72 | 39 | 16:25:01 | 34 | 16:01:05 | 36.06 | 0 | 4.3 | 317 | 32 | 70 | 70 | 72 | 72 |
| 05/02/2026 | 18:00:00 | 122 | 72 | 17:03:03 | 70 | 17:59:04 | 70 | 39 | 17:09:03 | 35 | 17:39:02 | 37.33 | 0 | 3.5 | 312 | 15 | 70 | 70 | 71 | 71 |
| 05/02/2026 | 19:00:00 | 122 | 70 | 18:00:01 | 65 | 18:55:05 | 65 | 48 | 18:55:01 | 37 | 18:03:04 | 46.28 | 0 | 1.5 | 309 | 1 | 70 | 69 | 71 | 70 |
| 05/02/2026 | 20:00:00 | 122 | 66 | 19:01:02 | 61 | 19:59:05 | 61 | 59 | 19:59:04 | 46 | 19:00:02 | 59.46 | 0 | 0.5 | 266 | 0 | 69 | 68 | 70 | 69 |
| 05/02/2026 | 21:00:00 | 122 | 61 | 20:00:01 | 57 | 20:50:05 | 57 | 80 | 20:45:00 | 59 | 20:00:00 | 73.51 | 0 | 0.3 | 71 | 0 | 68 | 68 | 69 | 69 |
| 05/02/2026 | 22:00:00 | 122 | 57 | 21:00:00 | 55 | 21:35:00 | 55 | 87 | 21:38:01 | 74 | 21:00:00 | 85.1 | 0 | 0.2 | 334 | 0 | 67 | 67 | 68 | 68 |
| 05/02/2026 | 23:00:00 | 122 | 55 | 22:00:00 | 53 | 22:30:00 | 54 | 90 | 22:27:00 | 85 | 22:00:00 | 88.6 | 0 | 0.4 | 16 | 0 | 66 | 66 | 67 | 67 |
| 05/03/2026 | 0:00:00 | 123 | 54 | 23:59:04 | 52 | 23:46:05 | 54 | 92 | 23:48:02 | 86 | 0:00:00 | 85.7 | 0 | 0.6 | 18 | 0 | 66 | 65 | 67 | 66 |
| Average | 69.3 | 67.71 | 68.49 | 80.35 | 74.07 | 76.96 | 0 | 5.18 | 13.46 | 70.47 | 70.48 | 70.85 | 70.81 | |||||||
| Total | 0.54 |